ダーウィン国際空港の過去48時間の天気

ダーウィン国際空港 (Darwin Airport)

現在時刻: 8/17 21:27 ACST (8/17 11:57 UTC) 以下の時間は現地時間です。

過去48時間のMETAR気象情報
時間 風向 風速(m/s) 視程 気温(℃) 湿度(%) 気圧(hPa) 天気現象
17 21:00 西南西 3 10km以上 26 70 1015
17 20:30 西南西 3 10km以上 26 70 1014
17 20:00 西南西 3 10km以上 27 66 1014
17 19:30 西 2 10km以上 27 62 1014
17 19:00 西北西 2 10km以上 27 62 1013
17 18:30 西北西 3 10km以上 28 58 1013
17 18:00 西北西 3 10km以上 29 52 1013
17 17:30 西北西 3 10km以上 29 52 1013
17 17:00 西北西 4 10km以上 29 52 1013
17 16:30 北西 4 10km以上 29 52 1013
17 16:00 北西 4 10km以上 30 49 1013
17 15:30 北西 4 10km以上 29 52 1013
17 15:00 西北西 5 10km以上 30 49 1013
17 14:30 北西 5 10km以上 29 55 1013
17 14:00 北西 5 10km以上 30 52 1014
17 13:30 北西 4 10km以上 29 55 1014
17 13:00 北西 4 10km以上 29 52 1015
17 12:30 西北西 4 10km以上 29 48 1015
17 12:00 西 3 10km以上 29 52 1015
17 11:30 西 3 10km以上 29 48 1015
17 11:00 2 10km以上 30 46 1016 塵旋風
17 10:30 2 10km以上 29 52 1016
17 10:00 1 10km以上 29 48 1016
17 09:30 1 10km以上 28 51 1016
17 09:00 南西 2 10km以上 27 51 1016
17 08:30 2 10km以上 25 69 1016
17 08:00 2 10km以上 23 83 1015
17 07:30 東北東 1 10km以上 22 88 1015
17 07:00 東北東 2 10km以上 22 88 1015
17 06:30 南南東 1 10km以上 21 94 1015
17 06:00 南南東 2 10km以上 22 88 1014
17 05:30 南南東 2 10km以上 22 88 1014
17 05:00 南東 2 10km以上 22 88 1014
17 04:30 東南東 2 10km以上 21 94 1014
17 04:00 南南東 2 10km以上 22 88 1014
17 03:30 東北東 1 10km以上 22 94 1014
17 03:00 静穏 0 10km以上 22 88 1014
17 02:30 2 10km以上 23 89 1014
17 02:00 2 10km以上 23 89 1014
17 01:30 2 10km以上 23 89 1014
17 01:00 2 10km以上 23 89 1014
17 00:30 南西 2 10km以上 24 83 1015
17 00:00 南西 2 10km以上 24 83 1014
16 23:30 南西 3 10km以上 24 83 1014
16 23:00 南西 3 10km以上 24 83 1015
16 22:30 南西 3 10km以上 24 83 1015
16 22:00 南西 3 10km以上 25 78 1015
16 21:30 南西 3 10km以上 25 74 1014
16 21:00 西南西 3 10km以上 25 74 1014
16 20:30 西 2 10km以上 25 78 1014
16 20:00 西 3 10km以上 25 78 1014
16 19:30 西 2 10km以上 26 74 1013
16 19:00 北西 2 10km以上 27 66 1013
16 18:30 北北西 3 10km以上 27 62 1013
16 18:00 北北西 4 10km以上 28 55 1013
16 17:30 4 10km以上 29 52 1013
16 17:00 5 10km以上 29 52 1013
16 16:30 4 10km以上 30 52 1013
16 16:00 北北西 4 10km以上 29 55 1013
16 15:30 北北西 4 10km以上 29 55 1013
16 15:00 北北西 5 10km以上 29 55 1013
16 14:30 北西 5 10km以上 29 55 1014
16 14:00 西北西 5 10km以上 29 55 1014
16 13:30 北西 5 10km以上 29 55 1014
16 12:30 西北西 4 10km以上 29 55 1015
16 12:00 西北西 3 10km以上 29 52 1016
16 11:30 西北西 2 10km以上 29 52 1016
16 11:00 2 10km以上 29 55 1017
16 10:30 東南東 2 10km以上 27 62 1017
16 10:00 南東 2 10km以上 27 62 1017
16 09:30 南東 3 10km以上 25 65 1017
16 09:00 南東 3 10km以上 23 73 1017
16 08:30 南東 3 10km以上 23 78 1017
16 08:00 東南東 2 10km以上 22 83 1016
16 07:30 東南東 2 10km以上 21 88 1016
16 07:00 2 10km以上 20 94 1016
16 06:30 2 10km以上 20 94 1015
16 06:00 南南東 2 10km以上 21 88 1015
16 05:30 2 10km以上 21 88 1015
16 05:00 南南東 2 10km以上 21 88 1015
16 04:30 東南東 2 10km以上 21 88 1015
16 04:00 南南東 2 10km以上 21 94 1015
16 03:30 3 10km以上 22 88 1015
16 03:00 3 10km以上 22 88 1015
16 02:30 3 10km以上 22 88 1015
16 02:00 南南西 1 10km以上 22 94 1015
16 01:30 南西 1 10km以上 22 83 1016
16 01:00 南西 2 10km以上 23 83 1015
16 00:30 静穏 0 10km以上 22 83 1016
16 00:00 南西 1 10km以上 22 88 1016
15 23:30 南南西 2 10km以上 23 83 1016
15 23:00 南南西 2 10km以上 24 74 1016
15 22:30 南西 2 10km以上 24 65 1016
15 22:00 2 10km以上 23 73 1015
15 21:30 2 10km以上 23 73 1015
YPDN 171130Z 24005KT CAVOK 26/20 Q1015 NOSIG RMK USE TAF FOR ARRIVALS AFTER 1230Z
YPDN 171100Z 24006KT CAVOK 26/20 Q1014 NOSIG RMK USE TAF FOR ARRIVALS AFTER 1230Z
YPDN 171030Z 25005KT CAVOK 27/20 Q1014 NOSIG RMK USE TAF FOR ARRIVALS AFTER 1230Z
YPDN 171000Z 28004KT CAVOK 27/19 Q1014 NOSIG RMK USE TAF FOR ARRIVALS AFTER 1230Z
YPDN 170930Z 30004KT CAVOK 27/19 Q1013 NOSIG RMK USE TAF FOR ARRIVALS AFTER 1230Z
YPDN 170900Z 30005KT 9999 FEW034 28/19 Q1013
YPDN 170830Z 29006KT 9999 FEW036 29/18 Q1013 NOSIG
YPDN 170800Z 29006KT 9999 FEW040 29/18 Q1013
YPDN 170730Z 29007KT 9999 FEW038 29/18 Q1013 NOSIG
YPDN 170700Z 31007KT 9999 FEW041 29/18 Q1013
YPDN 170630Z 31008KT 9999 FEW038 30/18 Q1013
YPDN 170600Z 31008KT 9999 FEW038 SCT063 29/18 Q1013 NOSIG
YPDN 170530Z 30009KT 9999 FEW038 SCT068 30/18 Q1013
YPDN 170500Z 31009KT 9999 FEW038 SCT064 29/19 Q1013
YPDN 170430Z 32009KT 9999 FEW042 SCT062 30/19 Q1014 NOSIG
YPDN 170400Z 32008KT 9999 FEW044 SCT073 29/19 Q1014
YPDN 170330Z 31008KT 9999 SCT045 SCT067 29/18 Q1015 NOSIG
YPDN 170300Z 29007KT 9999 SCT044 SCT064 29/17 Q1015
YPDN 170230Z 27006KT 9999 SCT042 SCT063 29/18 Q1015
YPDN 170200Z 28005KT 9999 SCT042 29/17 Q1015
YPDN 170130Z 09003KT 9999 PO FEW042 30/17 Q1016
YPDN 170100Z 01003KT 9999 FEW037 29/18 Q1016
YPDN 170030Z 35002KT 9999 FEW034 29/17 Q1016 NOSIG
YPDN 170000Z 18002KT 9999 FEW034 28/17 Q1016
YPDN 162330Z 22003KT 9999 FEW032 27/16 Q1016 NOSIG
YPDN 162300Z 19003KT 9999 FEW022 25/19 Q1016
YPDN 162230Z 08003KT 9999 FEW020 SCT046 23/20 Q1015 NOSIG
YPDN 162200Z 06001KT 9999 FEW020 BKN040 22/20 Q1015
YPDN 162130Z 07003KT 9999 FEW032 BKN045 22/20 Q1015
YPDN 162100Z 15002KT 9999 FEW020 BKN045 21/20 Q1015
YPDN 162030Z 15003KT 9999 FEW020 22/20 Q1014 NOSIG
YPDN 162000Z 16004KT 9999 FEW020 SCT039 22/20 Q1014
YPDN 161930Z AUTO 13003KT 9999 // SCT036 22/20 Q1014
YPDN 161900Z AUTO 11003KT 9999 // SCT036 21/20 Q1014
YPDN 161830Z AUTO 16003KT 9999 // SCT034 SCT047 22/20 Q1014
YPDN 161800Z AUTO 06001KT 9999 // SCT031 22/21 Q1014
YPDN 161730Z AUTO 00000KT 9999 // BKN031 22/20 Q1014
YPDN 161700Z AUTO 19004KT 9999 // NCD 23/21 Q1014
YPDN 161630Z AUTO 18003KT 9999 // NCD 23/21 Q1014
YPDN 161600Z AUTO 18003KT 9999 // NCD 23/21 Q1014
YPDN 161530Z AUTO 19003KT 9999 // NCD 23/21 Q1014
YPDN 161500Z AUTO 23003KT 9999 // NCD 24/21 Q1015
YPDN 161430Z 23004KT CAVOK 24/21 Q1014
YPDN 161400Z 23005KT CAVOK 24/21 Q1014
YPDN 161330Z 23005KT CAVOK 24/21 Q1015
YPDN 161300Z 23005KT CAVOK 24/21 Q1015
YPDN 161230Z 23005KT CAVOK 25/21 Q1015
YPDN 161200Z 23005KT CAVOK 25/20 Q1014 NOSIG RMK USE TAF FOR ARRIVALS AFTER 1230Z
YPDN 161130Z 24005KT CAVOK 25/20 Q1014 NOSIG RMK USE TAF FOR ARRIVALS AFTER 1230Z
YPDN 161100Z 28004KT CAVOK 25/21 Q1014 NOSIG RMK USE TAF FOR ARRIVALS AFTER 1230Z
YPDN 161030Z 27005KT CAVOK 25/21 Q1014 NOSIG RMK USE TAF FOR ARRIVALS AFTER 1230Z
YPDN 161000Z 28004KT CAVOK 26/21 Q1013 NOSIG RMK USE TAF FOR ARRIVALS AFTER 1230Z
YPDN 160930Z 31004KT CAVOK 27/20 Q1013 NOSIG
YPDN 160900Z 33005KT CAVOK 27/19 Q1013
YPDN 160830Z 33007KT 9999 FEW040 28/18 Q1013 NOSIG
YPDN 160800Z 35007KT 9999 FEW045 SCT350 29/18 Q1013 NOSIG
YPDN 160730Z 35009KT 9999 FEW038 29/18 Q1013 NOSIG
YPDN 160700Z 35008KT 9999 FEW038 30/19 Q1013 NOSIG
YPDN 160630Z 34008KT 9999 FEW038 29/19 Q1013 NOSIG
YPDN 160600Z 33008KT 9999 FEW038 29/19 Q1013 NOSIG
YPDN 160530Z 33009KT 9999 FEW038 29/19 Q1013 NOSIG
YPDN 160500Z 32009KT 9999 FEW038 29/19 Q1014 NOSIG
YPDN 160430Z 30009KT 9999 FEW038 29/19 Q1014 NOSIG
YPDN 160400Z 32009KT 9999 FEW038 29/19 Q1014
YPDN 160300Z 29008KT 9999 BKN038 29/19 Q1015 NOSIG
YPDN 160230Z 29005KT 250V350 9999 BKN038 29/18 Q1016 NOSIG
YPDN 160200Z 30004KT 270V010 9999 BKN035 29/18 Q1016
YPDN 160130Z 01004KT 9999 SCT030 29/19 Q1017 NOSIG
YPDN 160100Z 11003KT 9999 SCT029 27/19 Q1017 NOSIG
YPDN 160030Z 14004KT 9999 FEW032 27/19 Q1017
YPDN 160000Z 14005KT 9999 FEW026 BKN050 25/18 Q1017 NOSIG
YPDN 152330Z 13006KT 9999 FEW026 BKN040 23/18 Q1017 NOSIG
YPDN 152300Z 13006KT 9999 BKN036 23/19 Q1017 NOSIG
YPDN 152230Z 12004KT 9999 BKN032 22/19 Q1016 NOSIG
YPDN 152200Z 12004KT 9999 FEW035 21/19 Q1016 FM2215 08005KT 9999 BKN015 FM2300 11005KT 9999 FEW025
YPDN 152130Z 08004KT 9999 FEW035 20/19 Q1016 FM2200 08005KT 9999 BKN015 FM2300 11005KT 9999 FEW025
YPDN 152100Z 10003KT 9999 FEW035 20/19 Q1015 NOSIG
YPDN 152030Z 16003KT CAVOK 21/19 Q1015 NOSIG
YPDN 152000Z 17003KT CAVOK 21/19 Q1015 NOSIG
YPDN 151930Z AUTO 15003KT 9999 // NCD 21/19 Q1015
YPDN 151900Z AUTO 12004KT 9999 // NCD 21/19 Q1015
YPDN 151830Z AUTO 16003KT 9999 // NCD 21/20 Q1015
YPDN 151800Z AUTO 17005KT 9999 // SCT015 22/20 Q1015
YPDN 151730Z AUTO 18005KT 9999 // SCT015 22/20 Q1015
YPDN 151700Z AUTO 18005KT 9999 // NCD 22/20 Q1015
YPDN 151630Z AUTO 21002KT 9999 // NCD 22/21 Q1015
YPDN 151600Z AUTO 22002KT 9999 // NCD 22/19 Q1016
YPDN 151530Z AUTO 22003KT 9999 // NCD 23/20 Q1015
YPDN 151500Z AUTO 00000KT 9999 // NCD 22/19 Q1016
YPDN 151430Z 23001KT 9999 FEW015 22/20 Q1016
YPDN 151400Z 20003KT CAVOK 23/20 Q1016
YPDN 151330Z 21004KT CAVOK 24/19 Q1016
YPDN 151300Z 23004KT CAVOK 24/17 Q1016
YPDN 151230Z 01003KT CAVOK 23/18 Q1015
YPDN 151200Z 01003KT CAVOK 23/18 Q1015 NOSIG RMK USE TAF FOR ARRIVALS AFTER 1230Z